Home   Weather   Moscow   Past weeks
Flag for USA

Past Weather in Moscow, Tennessee, USA — Yesterday and Last 2 Weeks

Currently: 91 °F. Broken clouds. (Weather station: Olive Branch Airport, USA). See more current weather

Past Weather in Moscow — Graph

°F

Moscow Temperature Yesterday

Maximum temperature yesterday: 91 °F (at 1:50 pm)
Minimum temperature yesterday: 73 °F (at 4:15 am)
Average temperature yesterday: 80 °F

High & Low Weather Summary for the Past Weeks

 TemperatureHumidityPressure
High95 °F (Jun 15, 1:50 pm)100% (Jun 9, 9:15 pm)30.27 "Hg (Jun 9, 9:15 pm)
Low57 °F (Jun 12, 4:35 am)26% (Jun 13, 4:50 pm)29.84 "Hg (Jun 8, 9:15 pm)
Average76 °F73%30.01 "Hg
* Reported Jun 8 2:50 pm — Jun 23 2:50 pm, Moscow. Weather by CustomWeather, © 2024

Note: Actual official high and low records may vary slightly from our data, if they occured in-between our weather recording intervals... More about our weather records

Moscow Weather History for the Previous 24 Hours

Scroll right to see more
 ConditionsComfort  
Time TempWeatherWind HumidityBarometerVisibility
2:50 pm
Sun, Jun 23
90 °FBroken clouds.15 mph63%29.90 "Hg10 mi
1:50 pm90 °FScattered clouds.14 mph59%29.91 "Hg10 mi
12:50 pm91 °FScattered clouds.14 mph59%29.93 "Hg10 mi
11:50 am90 °FPassing clouds.14 mph59%29.94 "Hg10 mi
10:50 am90 °FPassing clouds.13 mph63%29.95 "Hg10 mi
9:50 am88 °FSunny.12 mph66%29.95 "Hg10 mi
8:50 am84 °FSunny.12 mph66%29.96 "Hg10 mi
7:50 am81 °FSunny.9 mph70%29.95 "Hg10 mi
6:50 am75 °FSunny.7 mph83%29.94 "Hg10 mi
6:35 am73 °FSunny.6 mph89%29.94 "Hg10 mi
6:15 am73 °FSunny.6 mph83%29.93 "Hg10 mi
5:55 am72 °FSunny.6 mph88%29.93 "Hg10 mi
5:35 am72 °FSunny.5 mph88%29.93 "Hg10 mi
5:15 am73 °FSunny.5 mph83%29.93 "Hg10 mi
4:55 am73 °FSunny.6 mph83%29.93 "Hg10 mi
4:35 am73 °FClear.6 mph83%29.93 "Hg10 mi
4:15 am73 °FMild.6 mph83%29.93 "Hg10 mi
3:55 am73 °FMild.6 mph83%29.94 "Hg10 mi
3:35 am73 °FMild.5 mph83%29.94 "Hg10 mi
3:15 am73 °FMild.6 mph83%29.94 "Hg10 mi
2:35 am73 °FMild.6 mph83%29.94 "Hg10 mi
2:15 am75 °FClear.6 mph78%29.94 "Hg10 mi
1:55 am75 °FClear.7 mph78%29.94 "Hg10 mi
1:35 am75 °FClear.8 mph78%29.95 "Hg10 mi
1:15 am75 °FClear.7 mph78%29.96 "Hg10 mi
12:55 am77 °FClear.7 mph74%29.96 "Hg10 mi
12:35 am77 °FClear.8 mph74%29.97 "Hg10 mi
12:15 am77 °FClear.7 mph74%29.97 "Hg10 mi
11:55 pm
Sat, Jun 22
77 °FWarm.7 mph74%29.97 "Hg10 mi
11:35 pm77 °FWarm.7 mph74%29.97 "Hg10 mi
11:15 pm77 °FPassing clouds.7 mph74%29.98 "Hg10 mi
10:55 pm77 °FWarm.6 mph79%29.98 "Hg10 mi
10:35 pm77 °FWarm.6 mph79%29.97 "Hg10 mi
10:15 pm79 °FWarm.6 mph74%29.97 "Hg10 mi
9:35 pm81 °FClear.6 mph66%29.96 "Hg10 mi
9:15 pm81 °FClear.5 mph66%29.96 "Hg10 mi
7:50 pm84 °FClear.8 mph55%29.96 "Hg10 mi
6:50 pm90 °FSunny.10 mph46%29.97 "Hg10 mi
5:50 pm91 °FPassing clouds.7 mph46%29.97 "Hg10 mi
4:50 pm91 °FPassing clouds.10 mph44%29.98 "Hg10 mi
Weather by CustomWeather, © 2024

See weather overview